sensor_id;sensor_type;location;lat;lon;timestamp;P1;durP1;ratioP1;P2;durP2;ratioP2
5452;SDS011;2749;53.576;9.822;2023-06-10T00:01:30;8.87;;;4.93;;
5452;SDS011;2749;53.576;9.822;2023-06-10T00:03:56;7.43;;;5.00;;
5452;SDS011;2749;53.576;9.822;2023-06-10T00:06:22;9.40;;;6.13;;
5452;SDS011;2749;53.576;9.822;2023-06-10T00:08:49;6.43;;;4.97;;
5452;SDS011;2749;53.576;9.822;2023-06-10T00:11:15;8.20;;;5.13;;
5452;SDS011;2749;53.576;9.822;2023-06-10T00:13:41;11.03;;;5.43;;
5452;SDS011;2749;53.576;9.822;2023-06-10T00:16:07;9.13;;;5.33;;
5452;SDS011;2749;53.576;9.822;2023-06-10T00:18:33;7.27;;;4.60;;
5452;SDS011;2749;53.576;9.822;2023-06-10T00:21:01;11.03;;;5.73;;
5452;SDS011;2749;53.576;9.822;2023-06-10T00:23:29;15.33;;;6.30;;
5452;SDS011;2749;53.576;9.822;2023-06-10T00:26:02;9.57;;;5.63;;
5452;SDS011;2749;53.576;9.822;2023-06-10T00:28:28;11.00;;;6.00;;
5452;SDS011;2749;53.576;9.822;2023-06-10T00:30:54;9.97;;;5.10;;
5452;SDS011;2749;53.576;9.822;2023-06-10T00:33:20;8.03;;;5.10;;
5452;SDS011;2749;53.576;9.822;2023-06-10T00:35:46;7.60;;;5.70;;
5452;SDS011;2749;53.576;9.822;2023-06-10T00:38:13;7.77;;;4.67;;
5452;SDS011;2749;53.576;9.822;2023-06-10T00:40:40;10.33;;;6.00;;
5452;SDS011;2749;53.576;9.822;2023-06-10T00:43:06;6.53;;;4.93;;
5452;SDS011;2749;53.576;9.822;2023-06-10T00:45:32;9.87;;;4.20;;
5452;SDS011;2749;53.576;9.822;2023-06-10T00:47:58;5.27;;;4.27;;
5452;SDS011;2749;53.576;9.822;2023-06-10T00:50:25;7.97;;;3.73;;
5452;SDS011;2749;53.576;9.822;2023-06-10T00:52:51;8.33;;;3.30;;
5452;SDS011;2749;53.576;9.822;2023-06-10T00:55:17;7.30;;;4.33;;
5452;SDS011;2749;53.576;9.822;2023-06-10T00:57:44;6.90;;;4.23;;
5452;SDS011;2749;53.576;9.822;2023-06-10T01:00:11;7.97;;;4.57;;
5452;SDS011;2749;53.576;9.822;2023-06-10T01:02:38;9.23;;;3.97;;
5452;SDS011;2749;53.576;9.822;2023-06-10T01:05:04;5.17;;;3.83;;
5452;SDS011;2749;53.576;9.822;2023-06-10T01:10:11;10.10;;;4.47;;
5452;SDS011;2749;53.576;9.822;2023-06-10T01:13:00;6.33;;;3.63;;
5452;SDS011;2749;53.576;9.822;2023-06-10T01:15:33;6.43;;;3.97;;
5452;SDS011;2749;53.576;9.822;2023-06-10T01:18:00;8.30;;;4.43;;
5452;SDS011;2749;53.576;9.822;2023-06-10T01:20:27;5.77;;;4.30;;
5452;SDS011;2749;53.576;9.822;2023-06-10T01:22:54;5.07;;;3.40;;
5452;SDS011;2749;53.576;9.822;2023-06-10T01:25:20;6.97;;;4.20;;
5452;SDS011;2749;53.576;9.822;2023-06-10T01:27:53;7.80;;;3.60;;
5452;SDS011;2749;53.576;9.822;2023-06-10T01:30:19;9.90;;;4.20;;
5452;SDS011;2749;53.576;9.822;2023-06-10T01:32:50;9.63;;;4.30;;
5452;SDS011;2749;53.576;9.822;2023-06-10T01:35:17;4.60;;;3.63;;
5452;SDS011;2749;53.576;9.822;2023-06-10T01:37:45;5.60;;;3.33;;
5452;SDS011;2749;53.576;9.822;2023-06-10T01:40:11;6.03;;;3.77;;
5452;SDS011;2749;53.576;9.822;2023-06-10T01:42:38;5.00;;;3.70;;
5452;SDS011;2749;53.576;9.822;2023-06-10T01:45:04;6.20;;;3.80;;
5452;SDS011;2749;53.576;9.822;2023-06-10T01:47:30;5.40;;;3.50;;
5452;SDS011;2749;53.576;9.822;2023-06-10T01:49:56;6.77;;;3.60;;
5452;SDS011;2749;53.576;9.822;2023-06-10T01:52:22;6.70;;;5.90;;
5452;SDS011;2749;53.576;9.822;2023-06-10T01:54:48;5.00;;;3.57;;
5452;SDS011;2749;53.576;9.822;2023-06-10T01:57:14;5.77;;;3.33;;
5452;SDS011;2749;53.576;9.822;2023-06-10T01:59:40;6.50;;;3.93;;
5452;SDS011;2749;53.576;9.822;2023-06-10T02:02:09;6.70;;;3.40;;
5452;SDS011;2749;53.576;9.822;2023-06-10T02:04:35;8.73;;;3.20;;
5452;SDS011;2749;53.576;9.822;2023-06-10T02:07:01;7.20;;;3.53;;
5452;SDS011;2749;53.576;9.822;2023-06-10T02:09:29;6.40;;;3.10;;
5452;SDS011;2749;53.576;9.822;2023-06-10T02:11:55;6.10;;;3.70;;
5452;SDS011;2749;53.576;9.822;2023-06-10T02:14:21;7.40;;;3.47;;
5452;SDS011;2749;53.576;9.822;2023-06-10T02:16:47;9.43;;;5.13;;
5452;SDS011;2749;53.576;9.822;2023-06-10T02:19:13;3.00;;;2.40;;
5452;SDS011;2749;53.576;9.822;2023-06-10T02:21:39;4.33;;;2.63;;
5452;SDS011;2749;53.576;9.822;2023-06-10T02:24:05;4.10;;;2.67;;
5452;SDS011;2749;53.576;9.822;2023-06-10T02:26:31;7.43;;;3.33;;
5452;SDS011;2749;53.576;9.822;2023-06-10T02:28:57;8.40;;;3.00;;
5452;SDS011;2749;53.576;9.822;2023-06-10T02:31:23;7.60;;;3.57;;
5452;SDS011;2749;53.576;9.822;2023-06-10T02:33:50;7.40;;;2.93;;
5452;SDS011;2749;53.576;9.822;2023-06-10T02:36:16;4.53;;;2.60;;
5452;SDS011;2749;53.576;9.822;2023-06-10T02:38:42;8.60;;;3.30;;
5452;SDS011;2749;53.576;9.822;2023-06-10T02:41:08;6.77;;;3.47;;
5452;SDS011;2749;53.576;9.822;2023-06-10T02:43:34;5.27;;;3.43;;
5452;SDS011;2749;53.576;9.822;2023-06-10T02:46:00;6.13;;;3.00;;
5452;SDS011;2749;53.576;9.822;2023-06-10T02:48:26;5.77;;;2.80;;
5452;SDS011;2749;53.576;9.822;2023-06-10T02:50:52;2.50;;;2.30;;
5452;SDS011;2749;53.576;9.822;2023-06-10T02:53:18;4.57;;;2.67;;
5452;SDS011;2749;53.576;9.822;2023-06-10T02:55:45;4.80;;;2.80;;
5452;SDS011;2749;53.576;9.822;2023-06-10T02:58:11;5.53;;;3.00;;
5452;SDS011;2749;53.576;9.822;2023-06-10T03:00:37;7.33;;;3.20;;
5452;SDS011;2749;53.576;9.822;2023-06-10T03:03:05;6.63;;;3.47;;
5452;SDS011;2749;53.576;9.822;2023-06-10T03:05:32;6.90;;;3.30;;
5452;SDS011;2749;53.576;9.822;2023-06-10T03:07:58;4.67;;;2.83;;
5452;SDS011;2749;53.576;9.822;2023-06-10T03:10:24;4.53;;;2.53;;
5452;SDS011;2749;53.576;9.822;2023-06-10T03:12:50;6.93;;;2.57;;
5452;SDS011;2749;53.576;9.822;2023-06-10T03:15:16;8.70;;;3.53;;
5452;SDS011;2749;53.576;9.822;2023-06-10T03:17:42;5.50;;;3.27;;
5452;SDS011;2749;53.576;9.822;2023-06-10T03:20:08;2.93;;;2.37;;
5452;SDS011;2749;53.576;9.822;2023-06-10T03:22:35;6.93;;;2.80;;
5452;SDS011;2749;53.576;9.822;2023-06-10T03:25:01;5.30;;;2.70;;
5452;SDS011;2749;53.576;9.822;2023-06-10T03:27:27;15.57;;;4.97;;
5452;SDS011;2749;53.576;9.822;2023-06-10T03:29:54;6.30;;;2.97;;
5452;SDS011;2749;53.576;9.822;2023-06-10T03:32:20;6.57;;;2.60;;
5452;SDS011;2749;53.576;9.822;2023-06-10T03:34:46;2.80;;;2.30;;
5452;SDS011;2749;53.576;9.822;2023-06-10T03:37:12;4.57;;;2.67;;
5452;SDS011;2749;53.576;9.822;2023-06-10T03:39:38;4.93;;;2.63;;
5452;SDS011;2749;53.576;9.822;2023-06-10T03:42:04;3.20;;;2.13;;
5452;SDS011;2749;53.576;9.822;2023-06-10T03:44:30;3.67;;;2.77;;
5452;SDS011;2749;53.576;9.822;2023-06-10T03:46:56;6.50;;;2.77;;
5452;SDS011;2749;53.576;9.822;2023-06-10T03:49:22;5.70;;;2.60;;
5452;SDS011;2749;53.576;9.822;2023-06-10T03:51:51;5.47;;;2.87;;
5452;SDS011;2749;53.576;9.822;2023-06-10T03:54:17;4.83;;;3.30;;
5452;SDS011;2749;53.576;9.822;2023-06-10T03:56:43;5.33;;;2.97;;
5452;SDS011;2749;53.576;9.822;2023-06-10T03:59:09;5.30;;;2.40;;
5452;SDS011;2749;53.576;9.822;2023-06-10T04:01:35;6.83;;;2.50;;
5452;SDS011;2749;53.576;9.822;2023-06-10T04:04:03;8.23;;;2.60;;
5452;SDS011;2749;53.576;9.822;2023-06-10T04:06:29;3.53;;;2.30;;
5452;SDS011;2749;53.576;9.822;2023-06-10T04:08:55;7.77;;;2.73;;
5452;SDS011;2749;53.576;9.822;2023-06-10T04:11:22;6.97;;;2.17;;
5452;SDS011;2749;53.576;9.822;2023-06-10T04:13:48;5.40;;;2.97;;
5452;SDS011;2749;53.576;9.822;2023-06-10T04:16:14;6.87;;;2.50;;
5452;SDS011;2749;53.576;9.822;2023-06-10T04:18:41;5.03;;;2.53;;
5452;SDS011;2749;53.576;9.822;2023-06-10T04:21:07;5.13;;;2.60;;
5452;SDS011;2749;53.576;9.822;2023-06-10T04:23:36;3.20;;;2.03;;
5452;SDS011;2749;53.576;9.822;2023-06-10T04:26:02;3.40;;;2.43;;
5452;SDS011;2749;53.576;9.822;2023-06-10T04:28:28;5.73;;;2.77;;
5452;SDS011;2749;53.576;9.822;2023-06-10T04:30:54;7.30;;;2.70;;
5452;SDS011;2749;53.576;9.822;2023-06-10T04:33:20;3.80;;;2.70;;
5452;SDS011;2749;53.576;9.822;2023-06-10T04:35:46;4.20;;;2.70;;
5452;SDS011;2749;53.576;9.822;2023-06-10T04:38:12;8.40;;;3.17;;
5452;SDS011;2749;53.576;9.822;2023-06-10T04:40:38;2.87;;;2.20;;
5452;SDS011;2749;53.576;9.822;2023-06-10T04:43:05;4.30;;;2.40;;
5452;SDS011;2749;53.576;9.822;2023-06-10T04:45:31;6.07;;;2.50;;
5452;SDS011;2749;53.576;9.822;2023-06-10T04:47:57;2.97;;;2.50;;
5452;SDS011;2749;53.576;9.822;2023-06-10T04:50:23;5.33;;;2.37;;
5452;SDS011;2749;53.576;9.822;2023-06-10T04:52:49;4.90;;;2.50;;
5452;SDS011;2749;53.576;9.822;2023-06-10T04:55:15;4.77;;;2.47;;
5452;SDS011;2749;53.576;9.822;2023-06-10T04:57:41;4.80;;;2.93;;
5452;SDS011;2749;53.576;9.822;2023-06-10T05:00:07;5.00;;;2.47;;
5452;SDS011;2749;53.576;9.822;2023-06-10T05:02:33;8.03;;;2.70;;
5452;SDS011;2749;53.576;9.822;2023-06-10T05:04:59;3.40;;;2.40;;
5452;SDS011;2749;53.576;9.822;2023-06-10T05:07:25;6.10;;;2.67;;
5452;SDS011;2749;53.576;9.822;2023-06-10T05:09:51;8.90;;;3.50;;
5452;SDS011;2749;53.576;9.822;2023-06-10T05:12:17;5.87;;;2.70;;
5452;SDS011;2749;53.576;9.822;2023-06-10T05:14:43;5.03;;;3.30;;
5452;SDS011;2749;53.576;9.822;2023-06-10T05:17:09;5.27;;;2.70;;
5452;SDS011;2749;53.576;9.822;2023-06-10T05:19:37;4.03;;;2.30;;
5452;SDS011;2749;53.576;9.822;2023-06-10T05:22:03;6.73;;;2.33;;
5452;SDS011;2749;53.576;9.822;2023-06-10T05:24:30;7.80;;;2.73;;
5452;SDS011;2749;53.576;9.822;2023-06-10T05:26:56;5.13;;;3.00;;
5452;SDS011;2749;53.576;9.822;2023-06-10T05:29:21;6.40;;;2.73;;
5452;SDS011;2749;53.576;9.822;2023-06-10T05:31:48;7.70;;;2.47;;
5452;SDS011;2749;53.576;9.822;2023-06-10T05:34:13;6.60;;;2.63;;
5452;SDS011;2749;53.576;9.822;2023-06-10T05:36:39;7.03;;;3.20;;
5452;SDS011;2749;53.576;9.822;2023-06-10T05:39:05;9.43;;;2.93;;
5452;SDS011;2749;53.576;9.822;2023-06-10T05:41:31;7.00;;;2.80;;
5452;SDS011;2749;53.576;9.822;2023-06-10T05:43:57;8.03;;;3.70;;
5452;SDS011;2749;53.576;9.822;2023-06-10T05:46:23;6.93;;;2.70;;
5452;SDS011;2749;53.576;9.822;2023-06-10T05:48:49;3.97;;;2.10;;
5452;SDS011;2749;53.576;9.822;2023-06-10T05:51:15;4.63;;;2.30;;
5452;SDS011;2749;53.576;9.822;2023-06-10T05:53:41;6.23;;;3.03;;
5452;SDS011;2749;53.576;9.822;2023-06-10T05:56:07;5.70;;;2.23;;
5452;SDS011;2749;53.576;9.822;2023-06-10T05:58:33;4.57;;;2.53;;
5452;SDS011;2749;53.576;9.822;2023-06-10T06:00:59;5.83;;;2.23;;
5452;SDS011;2749;53.576;9.822;2023-06-10T06:03:25;7.53;;;2.40;;
5452;SDS011;2749;53.576;9.822;2023-06-10T06:05:53;5.23;;;2.73;;
5452;SDS011;2749;53.576;9.822;2023-06-10T06:08:18;7.47;;;2.43;;
5452;SDS011;2749;53.576;9.822;2023-06-10T06:10:45;6.17;;;2.40;;
5452;SDS011;2749;53.576;9.822;2023-06-10T06:13:12;6.30;;;3.30;;
5452;SDS011;2749;53.576;9.822;2023-06-10T06:15:38;5.67;;;2.23;;
5452;SDS011;2749;53.576;9.822;2023-06-10T06:18:04;6.80;;;2.70;;
5452;SDS011;2749;53.576;9.822;2023-06-10T06:20:30;10.43;;;3.77;;
5452;SDS011;2749;53.576;9.822;2023-06-10T06:22:56;7.00;;;2.90;;
5452;SDS011;2749;53.576;9.822;2023-06-10T06:25:22;5.80;;;3.00;;
5452;SDS011;2749;53.576;9.822;2023-06-10T06:27:48;3.07;;;2.57;;
5452;SDS011;2749;53.576;9.822;2023-06-10T06:30:14;8.37;;;2.70;;
5452;SDS011;2749;53.576;9.822;2023-06-10T06:32:40;5.97;;;3.23;;
5452;SDS011;2749;53.576;9.822;2023-06-10T06:35:06;6.20;;;2.70;;
5452;SDS011;2749;53.576;9.822;2023-06-10T06:37:32;9.13;;;2.50;;
5452;SDS011;2749;53.576;9.822;2023-06-10T06:39:58;7.43;;;3.37;;
5452;SDS011;2749;53.576;9.822;2023-06-10T06:42:24;7.33;;;3.83;;
5452;SDS011;2749;53.576;9.822;2023-06-10T06:44:50;5.50;;;1.97;;
5452;SDS011;2749;53.576;9.822;2023-06-10T06:47:16;5.20;;;2.63;;
5452;SDS011;2749;53.576;9.822;2023-06-10T06:49:44;5.57;;;2.50;;
5452;SDS011;2749;53.576;9.822;2023-06-10T06:52:10;9.63;;;2.70;;
5452;SDS011;2749;53.576;9.822;2023-06-10T06:54:36;5.67;;;2.60;;
5452;SDS011;2749;53.576;9.822;2023-06-10T06:57:02;4.60;;;3.27;;
5452;SDS011;2749;53.576;9.822;2023-06-10T06:59:28;14.73;;;3.10;;
5452;SDS011;2749;53.576;9.822;2023-06-10T07:01:54;5.40;;;2.40;;
5452;SDS011;2749;53.576;9.822;2023-06-10T07:04:20;4.30;;;2.63;;
5452;SDS011;2749;53.576;9.822;2023-06-10T07:06:49;4.30;;;2.37;;
5452;SDS011;2749;53.576;9.822;2023-06-10T07:09:15;11.13;;;2.67;;
5452;SDS011;2749;53.576;9.822;2023-06-10T07:11:41;3.57;;;2.10;;
5452;SDS011;2749;53.576;9.822;2023-06-10T07:14:07;4.60;;;2.70;;
5452;SDS011;2749;53.576;9.822;2023-06-10T07:16:33;5.90;;;2.53;;
5452;SDS011;2749;53.576;9.822;2023-06-10T07:18:59;4.60;;;2.30;;
5452;SDS011;2749;53.576;9.822;2023-06-10T07:21:25;9.70;;;3.00;;
5452;SDS011;2749;53.576;9.822;2023-06-10T07:23:53;5.73;;;2.47;;
5452;SDS011;2749;53.576;9.822;2023-06-10T07:26:21;5.47;;;2.57;;
5452;SDS011;2749;53.576;9.822;2023-06-10T07:28:47;3.93;;;2.70;;
5452;SDS011;2749;53.576;9.822;2023-06-10T07:31:13;12.40;;;2.20;;
5452;SDS011;2749;53.576;9.822;2023-06-10T07:33:39;10.40;;;5.30;;
5452;SDS011;2749;53.576;9.822;2023-06-10T07:36:05;3.37;;;2.80;;
5452;SDS011;2749;53.576;9.822;2023-06-10T07:38:31;4.47;;;3.23;;
5452;SDS011;2749;53.576;9.822;2023-06-10T07:40:57;3.77;;;2.33;;
5452;SDS011;2749;53.576;9.822;2023-06-10T07:43:24;5.97;;;2.60;;
5452;SDS011;2749;53.576;9.822;2023-06-10T07:45:49;7.30;;;2.93;;
5452;SDS011;2749;53.576;9.822;2023-06-10T07:48:15;6.97;;;3.30;;
5452;SDS011;2749;53.576;9.822;2023-06-10T07:50:41;13.67;;;3.20;;
5452;SDS011;2749;53.576;9.822;2023-06-10T07:53:07;4.30;;;2.40;;
5452;SDS011;2749;53.576;9.822;2023-06-10T07:55:33;2.97;;;2.20;;
5452;SDS011;2749;53.576;9.822;2023-06-10T07:57:59;8.40;;;2.57;;
5452;SDS011;2749;53.576;9.822;2023-06-10T08:00:25;5.60;;;3.27;;
5452;SDS011;2749;53.576;9.822;2023-06-10T08:02:51;5.37;;;2.83;;
5452;SDS011;2749;53.576;9.822;2023-06-10T08:05:17;6.63;;;2.90;;
5452;SDS011;2749;53.576;9.822;2023-06-10T08:07:44;5.73;;;2.90;;
5452;SDS011;2749;53.576;9.822;2023-06-10T08:10:10;6.37;;;2.37;;
5452;SDS011;2749;53.576;9.822;2023-06-10T08:12:36;6.20;;;3.00;;
5452;SDS011;2749;53.576;9.822;2023-06-10T08:15:02;5.43;;;2.40;;
5452;SDS011;2749;53.576;9.822;2023-06-10T08:17:29;3.60;;;2.10;;
5452;SDS011;2749;53.576;9.822;2023-06-10T08:19:55;4.03;;;2.90;;
5452;SDS011;2749;53.576;9.822;2023-06-10T08:22:20;9.57;;;3.53;;
5452;SDS011;2749;53.576;9.822;2023-06-10T08:24:46;10.50;;;3.60;;
5452;SDS011;2749;53.576;9.822;2023-06-10T08:27:12;5.17;;;2.33;;
5452;SDS011;2749;53.576;9.822;2023-06-10T08:29:39;6.33;;;3.37;;
5452;SDS011;2749;53.576;9.822;2023-06-10T08:32:05;7.47;;;2.77;;
5452;SDS011;2749;53.576;9.822;2023-06-10T08:34:33;3.87;;;2.37;;
5452;SDS011;2749;53.576;9.822;2023-06-10T08:37:03;3.50;;;2.57;;
5452;SDS011;2749;53.576;9.822;2023-06-10T08:39:29;7.37;;;2.67;;
5452;SDS011;2749;53.576;9.822;2023-06-10T08:42:00;4.80;;;3.60;;
5452;SDS011;2749;53.576;9.822;2023-06-10T08:44:30;6.30;;;3.70;;
5452;SDS011;2749;53.576;9.822;2023-06-10T08:46:58;3.70;;;2.40;;
5452;SDS011;2749;53.576;9.822;2023-06-10T08:49:24;8.50;;;3.80;;
5452;SDS011;2749;53.576;9.822;2023-06-10T08:51:51;9.57;;;2.90;;
5452;SDS011;2749;53.576;9.822;2023-06-10T08:54:23;4.80;;;3.20;;
5452;SDS011;2749;53.576;9.822;2023-06-10T08:56:51;6.00;;;4.23;;
5452;SDS011;2749;53.576;9.822;2023-06-10T08:59:18;5.23;;;3.40;;
5452;SDS011;2749;53.576;9.822;2023-06-10T09:01:44;5.53;;;2.90;;
5452;SDS011;2749;53.576;9.822;2023-06-10T09:04:10;6.40;;;2.80;;
5452;SDS011;2749;53.576;9.822;2023-06-10T09:06:36;5.00;;;3.20;;
5452;SDS011;2749;53.576;9.822;2023-06-10T09:09:03;6.43;;;2.90;;
5452;SDS011;2749;53.576;9.822;2023-06-10T09:11:30;6.83;;;3.30;;
5452;SDS011;2749;53.576;9.822;2023-06-10T09:13:56;8.13;;;2.90;;
5452;SDS011;2749;53.576;9.822;2023-06-10T09:16:23;7.40;;;3.10;;
5452;SDS011;2749;53.576;9.822;2023-06-10T09:18:49;4.10;;;2.70;;
5452;SDS011;2749;53.576;9.822;2023-06-10T09:33:17;5.33;;;2.97;;
5452;SDS011;2749;53.576;9.822;2023-06-10T09:35:46;5.33;;;3.00;;
5452;SDS011;2749;53.576;9.822;2023-06-10T09:38:12;5.93;;;4.47;;
5452;SDS011;2749;53.576;9.822;2023-06-10T09:40:51;4.90;;;3.30;;
5452;SDS011;2749;53.576;9.822;2023-06-10T09:43:17;6.63;;;3.30;;
5452;SDS011;2749;53.576;9.822;2023-06-10T09:45:43;3.50;;;2.87;;
5452;SDS011;2749;53.576;9.822;2023-06-10T09:48:09;5.70;;;4.10;;
5452;SDS011;2749;53.576;9.822;2023-06-10T09:50:41;5.00;;;3.50;;
5452;SDS011;2749;53.576;9.822;2023-06-10T09:53:07;8.23;;;3.80;;
5452;SDS011;2749;53.576;9.822;2023-06-10T09:55:33;6.87;;;4.23;;
5452;SDS011;2749;53.576;9.822;2023-06-10T09:58:00;3.80;;;2.90;;
5452;SDS011;2749;53.576;9.822;2023-06-10T10:00:26;7.40;;;3.73;;
5452;SDS011;2749;53.576;9.822;2023-06-10T10:02:52;7.60;;;6.10;;
5452;SDS011;2749;53.576;9.822;2023-06-10T10:05:19;5.33;;;3.90;;
5452;SDS011;2749;53.576;9.822;2023-06-10T10:07:46;9.70;;;4.93;;
5452;SDS011;2749;53.576;9.822;2023-06-10T10:10:12;6.83;;;3.43;;
5452;SDS011;2749;53.576;9.822;2023-06-10T10:12:39;4.80;;;3.87;;
5452;SDS011;2749;53.576;9.822;2023-06-10T10:15:06;4.90;;;3.27;;
5452;SDS011;2749;53.576;9.822;2023-06-10T10:17:34;9.53;;;3.57;;
5452;SDS011;2749;53.576;9.822;2023-06-10T10:20:04;8.87;;;3.67;;
5452;SDS011;2749;53.576;9.822;2023-06-10T10:22:39;11.67;;;3.90;;
5452;SDS011;2749;53.576;9.822;2023-06-10T10:25:08;6.80;;;3.67;;
5452;SDS011;2749;53.576;9.822;2023-06-10T10:27:35;5.67;;;3.23;;
5452;SDS011;2749;53.576;9.822;2023-06-10T10:30:02;5.07;;;3.27;;
5452;SDS011;2749;53.576;9.822;2023-06-10T10:32:52;9.90;;;4.17;;
5452;SDS011;2749;53.576;9.822;2023-06-10T10:35:22;8.67;;;4.73;;
5452;SDS011;2749;53.576;9.822;2023-06-10T10:37:52;4.93;;;3.47;;
5452;SDS011;2749;53.576;9.822;2023-06-10T10:40:19;7.70;;;5.00;;
5452;SDS011;2749;53.576;9.822;2023-06-10T10:42:45;6.97;;;4.10;;
5452;SDS011;2749;53.576;9.822;2023-06-10T10:45:11;7.17;;;3.87;;
5452;SDS011;2749;53.576;9.822;2023-06-10T10:47:37;4.93;;;3.63;;
5452;SDS011;2749;53.576;9.822;2023-06-10T10:50:12;4.63;;;3.23;;
5452;SDS011;2749;53.576;9.822;2023-06-10T10:52:55;6.20;;;3.50;;
5452;SDS011;2749;53.576;9.822;2023-06-10T10:55:22;5.23;;;3.30;;
5452;SDS011;2749;53.576;9.822;2023-06-10T10:57:55;7.17;;;3.97;;
5452;SDS011;2749;53.576;9.822;2023-06-10T11:00:27;4.67;;;3.00;;
5452;SDS011;2749;53.576;9.822;2023-06-10T11:02:57;20.17;;;4.17;;
5452;SDS011;2749;53.576;9.822;2023-06-10T11:05:31;8.13;;;3.63;;
5452;SDS011;2749;53.576;9.822;2023-06-10T11:07:57;4.50;;;3.67;;
5452;SDS011;2749;53.576;9.822;2023-06-10T11:10:33;6.30;;;3.40;;
5452;SDS011;2749;53.576;9.822;2023-06-10T11:12:59;4.73;;;3.73;;
5452;SDS011;2749;53.576;9.822;2023-06-10T11:15:26;3.73;;;3.43;;
5452;SDS011;2749;53.576;9.822;2023-06-10T11:18:08;7.53;;;4.17;;
5452;SDS011;2749;53.576;9.822;2023-06-10T11:25:51;8.07;;;5.63;;
5452;SDS011;2749;53.576;9.822;2023-06-10T11:28:17;4.47;;;3.60;;
5452;SDS011;2749;53.576;9.822;2023-06-10T11:30:44;7.70;;;4.83;;
5452;SDS011;2749;53.576;9.822;2023-06-10T11:33:13;9.80;;;4.07;;
5452;SDS011;2749;53.576;9.822;2023-06-10T11:35:40;6.30;;;4.27;;
5452;SDS011;2749;53.576;9.822;2023-06-10T11:38:06;6.90;;;4.07;;
5452;SDS011;2749;53.576;9.822;2023-06-10T11:40:32;6.97;;;3.53;;
5452;SDS011;2749;53.576;9.822;2023-06-10T11:42:59;5.30;;;3.67;;
5452;SDS011;2749;53.576;9.822;2023-06-10T11:45:25;5.67;;;4.10;;
5452;SDS011;2749;53.576;9.822;2023-06-10T11:47:57;5.23;;;3.70;;
5452;SDS011;2749;53.576;9.822;2023-06-10T11:50:32;5.17;;;3.43;;
5452;SDS011;2749;53.576;9.822;2023-06-10T11:52:59;6.27;;;4.10;;
5452;SDS011;2749;53.576;9.822;2023-06-10T11:55:25;7.97;;;3.87;;
5452;SDS011;2749;53.576;9.822;2023-06-10T11:57:51;5.53;;;4.20;;
5452;SDS011;2749;53.576;9.822;2023-06-10T12:00:22;3.77;;;3.37;;
5452;SDS011;2749;53.576;9.822;2023-06-10T12:02:58;11.37;;;4.97;;
5452;SDS011;2749;53.576;9.822;2023-06-10T12:05:24;5.70;;;3.90;;
5452;SDS011;2749;53.576;9.822;2023-06-10T12:08:07;5.40;;;3.87;;
5452;SDS011;2749;53.576;9.822;2023-06-10T12:10:33;7.30;;;3.80;;
5452;SDS011;2749;53.576;9.822;2023-06-10T12:13:04;5.23;;;4.50;;
5452;SDS011;2749;53.576;9.822;2023-06-10T12:15:30;9.30;;;4.50;;
5452;SDS011;2749;53.576;9.822;2023-06-10T12:17:57;6.83;;;5.03;;
5452;SDS011;2749;53.576;9.822;2023-06-10T12:20:26;7.00;;;4.17;;
5452;SDS011;2749;53.576;9.822;2023-06-10T12:22:53;5.37;;;4.50;;
5452;SDS011;2749;53.576;9.822;2023-06-10T12:25:24;8.27;;;4.73;;
5452;SDS011;2749;53.576;9.822;2023-06-10T12:27:54;5.43;;;4.50;;
5452;SDS011;2749;53.576;9.822;2023-06-10T12:30:20;7.47;;;4.80;;
5452;SDS011;2749;53.576;9.822;2023-06-10T12:32:46;13.07;;;4.70;;
5452;SDS011;2749;53.576;9.822;2023-06-10T12:35:15;8.70;;;5.60;;
5452;SDS011;2749;53.576;9.822;2023-06-10T12:37:42;7.83;;;5.10;;
5452;SDS011;2749;53.576;9.822;2023-06-10T12:40:08;9.60;;;5.30;;
5452;SDS011;2749;53.576;9.822;2023-06-10T12:42:35;6.00;;;4.43;;
5452;SDS011;2749;53.576;9.822;2023-06-10T12:45:02;6.53;;;5.10;;
5452;SDS011;2749;53.576;9.822;2023-06-10T12:47:35;7.77;;;5.27;;
5452;SDS011;2749;53.576;9.822;2023-06-10T12:50:04;7.53;;;5.60;;
5452;SDS011;2749;53.576;9.822;2023-06-10T12:52:30;5.50;;;4.50;;
5452;SDS011;2749;53.576;9.822;2023-06-10T12:54:56;10.03;;;5.43;;
5452;SDS011;2749;53.576;9.822;2023-06-10T12:57:22;7.20;;;4.60;;
5452;SDS011;2749;53.576;9.822;2023-06-10T12:59:48;5.67;;;4.50;;
5452;SDS011;2749;53.576;9.822;2023-06-10T13:02:18;11.87;;;5.60;;
5452;SDS011;2749;53.576;9.822;2023-06-10T13:04:45;5.87;;;5.33;;
5452;SDS011;2749;53.576;9.822;2023-06-10T13:07:11;8.73;;;6.37;;
5452;SDS011;2749;53.576;9.822;2023-06-10T13:09:37;7.27;;;5.80;;
5452;SDS011;2749;53.576;9.822;2023-06-10T13:12:03;8.37;;;5.53;;
5452;SDS011;2749;53.576;9.822;2023-06-10T13:14:29;6.73;;;5.10;;
5452;SDS011;2749;53.576;9.822;2023-06-10T13:16:55;5.43;;;4.30;;
5452;SDS011;2749;53.576;9.822;2023-06-10T13:19:21;7.00;;;5.43;;
5452;SDS011;2749;53.576;9.822;2023-06-10T13:21:48;6.27;;;5.50;;
5452;SDS011;2749;53.576;9.822;2023-06-10T13:24:14;6.37;;;5.80;;
5452;SDS011;2749;53.576;9.822;2023-06-10T13:26:40;5.30;;;4.43;;
5452;SDS011;2749;53.576;9.822;2023-06-10T13:29:06;5.63;;;5.10;;
5452;SDS011;2749;53.576;9.822;2023-06-10T13:31:33;5.07;;;4.60;;
5452;SDS011;2749;53.576;9.822;2023-06-10T13:33:59;5.20;;;4.70;;
5452;SDS011;2749;53.576;9.822;2023-06-10T13:36:25;8.83;;;4.90;;
5452;SDS011;2749;53.576;9.822;2023-06-10T13:38:51;7.27;;;5.13;;
5452;SDS011;2749;53.576;9.822;2023-06-10T13:41:16;7.07;;;5.20;;
5452;SDS011;2749;53.576;9.822;2023-06-10T13:43:42;6.20;;;5.20;;
5452;SDS011;2749;53.576;9.822;2023-06-10T13:46:08;7.80;;;4.93;;
5452;SDS011;2749;53.576;9.822;2023-06-10T13:48:34;9.53;;;5.20;;
5452;SDS011;2749;53.576;9.822;2023-06-10T13:51:00;7.80;;;4.93;;
5452;SDS011;2749;53.576;9.822;2023-06-10T13:53:26;11.57;;;5.50;;
5452;SDS011;2749;53.576;9.822;2023-06-10T13:55:52;6.50;;;5.10;;
5452;SDS011;2749;53.576;9.822;2023-06-10T13:58:18;9.33;;;5.20;;
5452;SDS011;2749;53.576;9.822;2023-06-10T14:00:44;9.40;;;5.63;;
5452;SDS011;2749;53.576;9.822;2023-06-10T14:03:10;4.73;;;3.83;;
5452;SDS011;2749;53.576;9.822;2023-06-10T14:05:36;6.70;;;4.07;;
5452;SDS011;2749;53.576;9.822;2023-06-10T14:08:02;5.87;;;4.13;;
5452;SDS011;2749;53.576;9.822;2023-06-10T14:10:29;10.13;;;5.03;;
5452;SDS011;2749;53.576;9.822;2023-06-10T14:12:54;6.70;;;5.00;;
5452;SDS011;2749;53.576;9.822;2023-06-10T14:15:20;5.30;;;4.20;;
5452;SDS011;2749;53.576;9.822;2023-06-10T14:17:46;12.50;;;5.03;;
5452;SDS011;2749;53.576;9.822;2023-06-10T14:20:12;4.47;;;3.67;;
5452;SDS011;2749;53.576;9.822;2023-06-10T14:22:38;5.00;;;3.90;;
5452;SDS011;2749;53.576;9.822;2023-06-10T14:25:05;7.10;;;4.30;;
5452;SDS011;2749;53.576;9.822;2023-06-10T14:27:31;4.73;;;3.73;;
5452;SDS011;2749;53.576;9.822;2023-06-10T14:29:57;5.40;;;3.70;;
5452;SDS011;2749;53.576;9.822;2023-06-10T14:32:23;7.00;;;3.77;;
5452;SDS011;2749;53.576;9.822;2023-06-10T14:34:49;7.47;;;3.20;;
5452;SDS011;2749;53.576;9.822;2023-06-10T14:37:15;9.53;;;3.97;;
5452;SDS011;2749;53.576;9.822;2023-06-10T14:39:41;7.10;;;3.90;;
5452;SDS011;2749;53.576;9.822;2023-06-10T14:42:06;5.87;;;4.27;;
5452;SDS011;2749;53.576;9.822;2023-06-10T14:44:32;5.77;;;3.90;;
5452;SDS011;2749;53.576;9.822;2023-06-10T14:46:58;9.00;;;4.07;;
5452;SDS011;2749;53.576;9.822;2023-06-10T14:49:24;5.93;;;4.43;;
5452;SDS011;2749;53.576;9.822;2023-06-10T14:51:50;7.10;;;3.83;;
5452;SDS011;2749;53.576;9.822;2023-06-10T14:54:16;5.73;;;3.60;;
5452;SDS011;2749;53.576;9.822;2023-06-10T14:56:42;7.63;;;3.77;;
5452;SDS011;2749;53.576;9.822;2023-06-10T14:59:08;8.00;;;4.30;;
5452;SDS011;2749;53.576;9.822;2023-06-10T15:01:34;9.37;;;4.73;;
5452;SDS011;2749;53.576;9.822;2023-06-10T15:04:00;6.10;;;3.77;;
5452;SDS011;2749;53.576;9.822;2023-06-10T15:06:26;37.40;;;7.50;;
5452;SDS011;2749;53.576;9.822;2023-06-10T15:08:52;8.13;;;4.70;;
5452;SDS011;2749;53.576;9.822;2023-06-10T15:11:18;5.43;;;3.77;;
5452;SDS011;2749;53.576;9.822;2023-06-10T15:13:45;9.00;;;4.23;;
5452;SDS011;2749;53.576;9.822;2023-06-10T15:16:11;8.23;;;3.77;;
5452;SDS011;2749;53.576;9.822;2023-06-10T15:18:37;7.33;;;3.93;;
5452;SDS011;2749;53.576;9.822;2023-06-10T15:21:03;9.23;;;4.50;;
5452;SDS011;2749;53.576;9.822;2023-06-10T15:23:29;7.83;;;4.20;;
5452;SDS011;2749;53.576;9.822;2023-06-10T15:25:55;7.70;;;5.10;;
5452;SDS011;2749;53.576;9.822;2023-06-10T15:28:21;5.73;;;3.53;;
5452;SDS011;2749;53.576;9.822;2023-06-10T15:30:47;6.40;;;4.93;;
5452;SDS011;2749;53.576;9.822;2023-06-10T15:33:14;13.13;;;5.43;;